Ops Hamburg — A8VS9 — position and weather

sailwx.info

Track history (hours):
 
Tides and Currents Weather Stations Pressure Air Temp Water Temp Dewpoint Dewpoint Depression Visibility Wind Speed Wind Dir Waves Ship Positions

Ops Hamburg

Last reported at 2015-Jul-04 02:29 UTC. Time now 2015-Jul-04 20:47 UTC.
Position N 36°51' E 005°23'.

Length 148 m; draft 6.9 m.

Type: Ship (hazmat cat A). MMSI: 636092040.

Date/timePositionNaut miles runAvg speedWind from/ knotsBaromVisibWave heightAir tempDewpointWater temp
2015-Jul-04 02:29N 36°51' E 005°23'1111.0
2015-Jul-04 01:31N 36°55' E 005°36'1110.9
2015-Jul-04 00:31N 36°59' E 005°48'1111.1
2015-Jul-03 23:30N 37°04' E 006°01'1111.8
2015-Jul-03 22:33N 37°08' E 006°14'1312.7
2015-Jul-03 21:33N 37°13' E 006°29'2512.3
2015-Jul-03 19:33N 37°01' E 006°56'8 2.5
2015-Jul-03 16:28N 36°53' E 006°54'0 0.0
2015-Jul-03 15:31N 36°53' E 006°54'0 0.0
2015-Jul-03 14:31N 36°53' E 006°54'0 0.0
2015-Jul-03 13:31N 36°53' E 006°54'47 3.9
2015-Jul-03 01:33N 37°00' E 007°52'  
2015-Jun-30 11:23N 36°54' E 007°47'2 2.5
2015-Jun-30 10:33N 36°55' E 007°50'1 0.0
2015-Jun-29 22:31N 36°56' E 007°50'0 0.0
2015-Jun-29 21:31N 36°56' E 007°50'0 0.0
2015-Jun-29 14:31N 36°56' E 007°50'0 0.0
2015-Jun-29 13:31N 36°55' E 007°50'26 3.7
2015-Jun-29 06:32N 37°21' E 007°44'1010.4
2015-Jun-29 05:32N 37°31' E 007°39'14211.8
2015-Jun-28 17:29N 39°46' E 006°41'3612.1
2015-Jun-28 14:33N 40°20' E 006°26'1612.2
2015-Jun-28 13:12N 40°35' E 006°19'2112.2
2015-Jun-28 11:29N 40°55' E 006°11'3712.1
2015-Jun-28 08:27N 41°30' E 005°55'3612.4
2015-Jun-28 05:33N 42°04' E 005°40'1212.2
2015-Jun-28 04:33N 42°16' E 005°34'1212.2
2015-Jun-28 03:33N 42°27' E 005°29'1212.1
2015-Jun-28 02:33N 42°39' E 005°24'1211.9
2015-Jun-28 01:33N 42°50' E 005°19'1211.8
2015-Jun-28 00:33N 43°01' E 005°14'1211.7
2015-Jun-27 23:33N 43°12' E 005°09'1110.7
2015-Jun-27 22:33N 43°20' E 005°18'1 1.1
2015-Jun-27 21:23N 43°21' E 005°20'0 0.0
2015-Jun-27 20:29N 43°21' E 005°20'0 0.0
2015-Jun-27 19:17N 43°21' E 005°20'0 0.0
2015-Jun-27 18:23N 43°21' E 005°20'0 0.0
2015-Jun-27 17:32N 43°21' E 005°20'0 0.0
2015-Jun-27 16:29N 43°21' E 005°20'0 0.0
2015-Jun-27 15:23N 43°21' E 005°20'0 0.0
2015-Jun-27 14:29N 43°21' E 005°20'0 0.0
2015-Jun-27 13:29N 43°21' E 005°20'0 0.0
2015-Jun-27 12:29N 43°21' E 005°20'0 0.0
2015-Jun-27 10:23N 43°21' E 005°20'0 0.0
2015-Jun-27 09:29N 43°21' E 005°20'0 0.0
2015-Jun-27 08:23N 43°21' E 005°20'0 0.0
2015-Jun-27 07:29N 43°21' E 005°20'0 0.0
2015-Jun-27 06:26N 43°21' E 005°20'0 0.0
2015-Jun-27 05:29N 43°21' E 005°20'0 0.0
2015-Jun-27 04:23N 43°21' E 005°20'0 0.1
2015-Jun-27 03:33N 43°21' E 005°20'7 7.1
2015-Jun-27 02:33N 43°17' E 005°12'1211.6
2015-Jun-27 01:33N 43°06' E 005°07'1313.0
2015-Jun-27 00:33N 42°53' E 005°03'1313.4
2015-Jun-26 23:33N 42°40' E 005°02'1413.6
2015-Jun-26 22:33N 42°26' E 005°01'1413.7
2015-Jun-26 21:33N 42°12' E 005°00'1413.6
2015-Jun-26 20:34N 41°59' E 004°59'1413.6
2015-Jun-26 19:33N 41°45' E 004°58'1313.3
2015-Jun-26 18:33N 41°32' E 004°57'1413.5
2015-Jun-26 17:33N 41°19' E 004°56'1413.3
2015-Jun-26 16:32N 41°05' E 004°55'1312.7
2015-Jun-26 15:32N 40°52' E 004°54'1212.4
2015-Jun-26 14:33N 40°40' E 004°53'4512.9
2015-Jun-26 11:03N 39°55' E 004°47'713.5
2015-Jun-26 10:33N 39°49' E 004°44'3913.1
2015-Jun-26 07:33N 39°13' E 004°24'1512.6
2015-Jun-26 06:23N 38°59' E 004°17'1012.5
2015-Jun-26 05:33N 38°50' E 004°12'1212.3
2015-Jun-26 04:32N 38°38' E 004°05'1212.2
2015-Jun-26 03:33N 38°27' E 003°59'1212.3
2015-Jun-26 02:33N 38°16' E 003°53'1312.3
2015-Jun-26 01:32N 38°04' E 003°47'86 2.6
2015-Jun-24 16:11N 36°46' E 003°04'0 0.0
2015-Jun-24 04:08N 36°46' E 003°04'0 0.0
2015-Jun-24 03:29N 36°46' E 003°04'  
Track history (hours):
 
Tides and Currents Weather Stations Pressure Air Temp Water Temp Dewpoint Dewpoint Depression Visibility Wind Speed Wind Dir Waves Ship Positions

Ops Hamburg

Last reported at 2015-Jul-04 02:29 UTC. Time now 2015-Jul-04 20:47 UTC.
Position N 36°51' E 005°23'.

Length 148 m; draft 6.9 m.

Type: Ship (hazmat cat A). MMSI: 636092040.

Date/timePositionNaut miles runAvg speedWind from/ knotsBaromVisibWave heightAir tempDewpointWater temp
2015-Jul-04 02:29N 36°51' E 005°23'1111.0
2015-Jul-04 01:31N 36°55' E 005°36'1110.9
2015-Jul-04 00:31N 36°59' E 005°48'1111.1
2015-Jul-03 23:30N 37°04' E 006°01'1111.8
2015-Jul-03 22:33N 37°08' E 006°14'1312.7
2015-Jul-03 21:33N 37°13' E 006°29'2512.3
2015-Jul-03 19:33N 37°01' E 006°56'8 2.5
2015-Jul-03 16:28N 36°53' E 006°54'0 0.0
2015-Jul-03 15:31N 36°53' E 006°54'0 0.0
2015-Jul-03 14:31N 36°53' E 006°54'0 0.0
2015-Jul-03 13:31N 36°53' E 006°54'47 3.9
2015-Jul-03 01:33N 37°00' E 007°52'  
2015-Jun-30 11:23N 36°54' E 007°47'2 2.5
2015-Jun-30 10:33N 36°55' E 007°50'1 0.0
2015-Jun-29 22:31N 36°56' E 007°50'0 0.0
2015-Jun-29 21:31N 36°56' E 007°50'0 0.0
2015-Jun-29 14:31N 36°56' E 007°50'0 0.0
2015-Jun-29 13:31N 36°55' E 007°50'26 3.7
2015-Jun-29 06:32N 37°21' E 007°44'1010.4
2015-Jun-29 05:32N 37°31' E 007°39'14211.8
2015-Jun-28 17:29N 39°46' E 006°41'3612.1
2015-Jun-28 14:33N 40°20' E 006°26'1612.2
2015-Jun-28 13:12N 40°35' E 006°19'2112.2
2015-Jun-28 11:29N 40°55' E 006°11'3712.1
2015-Jun-28 08:27N 41°30' E 005°55'3612.4
2015-Jun-28 05:33N 42°04' E 005°40'1212.2
2015-Jun-28 04:33N 42°16' E 005°34'1212.2
2015-Jun-28 03:33N 42°27' E 005°29'1212.1
2015-Jun-28 02:33N 42°39' E 005°24'1211.9
2015-Jun-28 01:33N 42°50' E 005°19'1211.8
2015-Jun-28 00:33N 43°01' E 005°14'1211.7
2015-Jun-27 23:33N 43°12' E 005°09'1110.7
2015-Jun-27 22:33N 43°20' E 005°18'1 1.1
2015-Jun-27 21:23N 43°21' E 005°20'0 0.0
2015-Jun-27 20:29N 43°21' E 005°20'0 0.0
2015-Jun-27 19:17N 43°21' E 005°20'0 0.0
2015-Jun-27 18:23N 43°21' E 005°20'0 0.0
2015-Jun-27 17:32N 43°21' E 005°20'0 0.0
2015-Jun-27 16:29N 43°21' E 005°20'0 0.0
2015-Jun-27 15:23N 43°21' E 005°20'0 0.0
2015-Jun-27 14:29N 43°21' E 005°20'0 0.0
2015-Jun-27 13:29N 43°21' E 005°20'0 0.0
2015-Jun-27 12:29N 43°21' E 005°20'0 0.0
2015-Jun-27 10:23N 43°21' E 005°20'0 0.0
2015-Jun-27 09:29N 43°21' E 005°20'0 0.0
2015-Jun-27 08:23N 43°21' E 005°20'0 0.0
2015-Jun-27 07:29N 43°21' E 005°20'0 0.0
2015-Jun-27 06:26N 43°21' E 005°20'0 0.0
2015-Jun-27 05:29N 43°21' E 005°20'0 0.0
2015-Jun-27 04:23N 43°21' E 005°20'0 0.1
2015-Jun-27 03:33N 43°21' E 005°20'7 7.1
2015-Jun-27 02:33N 43°17' E 005°12'1211.6
2015-Jun-27 01:33N 43°06' E 005°07'1313.0
2015-Jun-27 00:33N 42°53' E 005°03'1313.4
2015-Jun-26 23:33N 42°40' E 005°02'1413.6
2015-Jun-26 22:33N 42°26' E 005°01'1413.7
2015-Jun-26 21:33N 42°12' E 005°00'1413.6
2015-Jun-26 20:34N 41°59' E 004°59'1413.6
2015-Jun-26 19:33N 41°45' E 004°58'1313.3
2015-Jun-26 18:33N 41°32' E 004°57'1413.5
2015-Jun-26 17:33N 41°19' E 004°56'1413.3
2015-Jun-26 16:32N 41°05' E 004°55'1312.7
2015-Jun-26 15:32N 40°52' E 004°54'1212.4
2015-Jun-26 14:33N 40°40' E 004°53'4512.9
2015-Jun-26 11:03N 39°55' E 004°47'713.5
2015-Jun-26 10:33N 39°49' E 004°44'3913.1
2015-Jun-26 07:33N 39°13' E 004°24'1512.6
2015-Jun-26 06:23N 38°59' E 004°17'1012.5
2015-Jun-26 05:33N 38°50' E 004°12'1212.3
2015-Jun-26 04:32N 38°38' E 004°05'1212.2
2015-Jun-26 03:33N 38°27' E 003°59'1212.3
2015-Jun-26 02:33N 38°16' E 003°53'1312.3
2015-Jun-26 01:32N 38°04' E 003°47'86 2.6
2015-Jun-24 16:11N 36°46' E 003°04'0 0.0
2015-Jun-24 04:08N 36°46' E 003°04'0 0.0
2015-Jun-24 03:29N 36°46' E 003°04'  

Dump ship's entire track history